Time;durP1;ratioP1;P1;durP2;ratioP2;P2;SDS_P1;SDS_P2;PMS_P1;PMS_P2;Temp;Humidity;BMP_temperature;BMP_pressure;BME280_temperature;BME280_humidity;BME280_pressure;Samples;Min_cycle;Max_cycle;Signal;HPM_P1;HPM_P2
2022/01/05 00:00:50;;;;;;;1.30;1.20;;;;;5.00;94677.00;;;;8323599;28;20232;-86
2022/01/05 00:04:53;;;;;;;1.60;1.50;;;;;5.10;94664.00;;;;8317421;28;20233;-81
2022/01/05 00:08:58;;;;;;;1.97;1.30;;;;;5.10;94645.00;;;;8320643;28;20424;-84
2022/01/05 00:13:01;;;;;;;1.30;1.20;;;;;5.10;94640.00;;;;8321336;28;20253;-81
2022/01/05 00:17:04;;;;;;;1.00;0.90;;;;;5.10;94649.00;;;;8312327;28;20230;-84
2022/01/05 00:21:08;;;;;;;1.33;1.23;;;;;5.00;94646.00;;;;8315954;28;20845;-79
2022/01/05 00:25:12;;;;;;;2.73;1.20;;;;;5.00;94669.00;;;;8285746;28;20245;-81
2022/01/05 00:29:16;;;;;;;0.90;0.90;;;;;4.90;94693.00;;;;8320903;28;20651;-80
2022/01/05 00:33:19;;;;;;;0.80;0.80;;;;;4.90;94705.00;;;;8321962;28;20253;-81
2022/01/05 00:37:22;;;;;;;1.07;1.07;;;;;4.90;94701.00;;;;8318981;28;20311;-80
2022/01/05 00:41:26;;;;;;;1.10;1.10;;;;;4.90;94715.00;;;;8319591;28;20313;-85
2022/01/05 00:45:29;;;;;;;1.50;0.90;;;;;4.80;94720.00;;;;8321364;28;20265;-84
2022/01/05 00:49:33;;;;;;;1.37;1.17;;;;;4.80;94713.00;;;;8321931;28;20229;-85
2022/01/05 00:53:37;;;;;;;1.13;1.03;;;;;4.70;94722.00;;;;8325557;28;20240;-84
2022/01/05 00:57:41;;;;;;;1.30;1.20;;;;;4.70;94733.00;;;;8326035;28;20245;-83
2022/01/05 01:01:45;;;;;;;1.10;1.10;;;;;4.60;94735.00;;;;8321980;28;20260;-83
2022/01/05 01:05:48;;;;;;;3.90;1.40;;;;;4.60;94733.00;;;;8319764;28;20682;-82
2022/01/05 01:09:51;;;;;;;1.73;1.40;;;;;4.60;94726.00;;;;8321733;28;20301;-85
2022/01/05 01:13:56;;;;;;;2.50;1.63;;;;;4.50;94716.00;;;;8320403;28;20232;-84
2022/01/05 01:17:59;;;;;;;1.07;1.07;;;;;4.50;94712.00;;;;8320888;28;20240;-84
2022/01/05 01:22:03;;;;;;;1.00;0.93;;;;;4.50;94712.00;;;;8321168;28;20224;-84
2022/01/05 01:26:06;;;;;;;1.17;1.17;;;;;4.50;94704.00;;;;8321279;28;20730;-84
2022/01/05 01:30:12;;;;;;;0.70;0.70;;;;;4.40;94696.00;;;;8287568;28;20225;-82
2022/01/05 01:34:15;;;;;;;1.30;1.20;;;;;4.40;94698.00;;;;8297994;28;20248;-83
2022/01/05 01:38:18;;;;;;;2.27;1.10;;;;;4.40;94703.00;;;;8318013;28;20725;-86
2022/01/05 01:42:22;;;;;;;0.80;0.80;;;;;4.40;94706.00;;;;8319602;28;20264;-83
2022/01/05 01:46:27;;;;;;;1.30;1.23;;;;;4.40;94691.00;;;;8324112;28;20717;-86
2022/01/05 01:50:30;;;;;;;1.00;1.00;;;;;4.40;94695.00;;;;8322548;28;20260;-85
2022/01/05 01:54:35;;;;;;;0.90;0.90;;;;;4.40;94685.00;;;;8319417;28;20257;-83
2022/01/05 01:58:39;;;;;;;1.27;1.17;;;;;4.40;94691.00;;;;8298489;28;20597;-86
2022/01/05 02:02:45;;;;;;;0.93;0.93;;;;;4.40;94695.00;;;;8318435;28;20229;-82
2022/01/05 02:06:51;;;;;;;1.03;1.00;;;;;4.40;94680.00;;;;8302379;28;20240;-82
2022/01/05 02:10:54;;;;;;;1.00;0.90;;;;;4.40;94690.00;;;;8304237;28;20238;-84
2022/01/05 02:14:58;;;;;;;3.60;0.80;;;;;4.40;94681.00;;;;8305087;28;20268;-84
2022/01/05 02:19:03;;;;;;;1.03;0.90;;;;;4.50;94682.00;;;;8321494;28;20610;-90
2022/01/05 02:23:07;;;;;;;1.07;0.97;;;;;4.50;94680.00;;;;8319011;28;20260;-84
2022/01/05 02:27:11;;;;;;;0.90;0.90;;;;;4.50;94670.00;;;;8320339;28;20268;-83
2022/01/05 02:31:14;;;;;;;1.73;1.00;;;;;4.50;94674.00;;;;8316569;28;20312;-81
2022/01/05 02:35:17;;;;;;;1.07;1.07;;;;;4.50;94678.00;;;;8317369;28;20228;-82
2022/01/05 02:39:22;;;;;;;1.43;1.33;;;;;4.60;94691.00;;;;8316387;28;20257;-85
2022/01/05 02:43:25;;;;;;;1.47;1.37;;;;;4.60;94684.00;;;;8317442;28;20272;-86
2022/01/05 02:47:28;;;;;;;2.10;1.90;;;;;4.60;94691.00;;;;8317366;28;20278;-83
2022/01/05 02:51:32;;;;;;;2.57;1.93;;;;;4.60;94691.00;;;;8315443;28;20667;-92
2022/01/05 02:55:37;;;;;;;3.70;1.90;;;;;4.70;94693.00;;;;8312593;28;20225;-89
2022/01/05 02:59:41;;;;;;;2.63;2.00;;;;;4.70;94683.00;;;;8312933;28;20256;-81
2022/01/05 03:03:44;;;;;;;3.90;2.27;;;;;4.60;94693.00;;;;8276757;23;20751;-79
2022/01/05 03:07:47;;;;;;;4.27;2.50;;;;;4.70;94695.00;;;;8220306;28;20254;-80
2022/01/05 03:11:52;;;;;;;2.90;1.80;;;;;4.70;94689.00;;;;8227639;28;20339;-82
2022/01/05 03:15:57;;;;;;;4.67;2.40;;;;;4.70;94684.00;;;;8231569;28;20317;-80
2022/01/05 03:20:00;;;;;;;3.03;2.20;;;;;4.80;94701.00;;;;8223235;28;20254;-83
2022/01/05 03:24:04;;;;;;;5.20;2.67;;;;;4.80;94682.00;;;;8234048;28;20317;-82
2022/01/05 03:28:08;;;;;;;5.53;2.83;;;;;4.90;94690.00;;;;8231212;28;20309;-83
2022/01/05 03:32:11;;;;;;;4.93;2.87;;;;;4.90;94662.00;;;;8246052;28;20254;-79
2022/01/05 03:36:15;;;;;;;4.50;2.87;;;;;4.90;94672.00;;;;8247815;28;20315;-83
2022/01/05 03:40:18;;;;;;;7.97;3.07;;;;;5.00;94666.00;;;;8242552;28;20458;-79
2022/01/05 03:44:23;;;;;;;4.57;2.70;;;;;5.00;94661.00;;;;8219635;28;20273;-81
2022/01/05 03:48:26;;;;;;;3.97;2.43;;;;;5.10;94682.00;;;;8235789;28;20310;-78
2022/01/05 03:52:29;;;;;;;6.57;3.00;;;;;5.10;94677.00;;;;8235989;28;20265;-80
2022/01/05 03:56:33;;;;;;;5.57;2.93;;;;;5.10;94682.00;;;;8239545;28;20309;-76
2022/01/05 04:00:40;;;;;;;4.83;2.80;;;;;5.20;94685.00;;;;8255539;28;20255;-82
2022/01/05 04:04:45;;;;;;;7.00;2.80;;;;;5.20;94689.00;;;;8246545;28;20228;-80
2022/01/05 04:08:48;;;;;;;4.03;2.53;;;;;5.20;94682.00;;;;8238481;28;20683;-81
2022/01/05 04:12:52;;;;;;;6.17;2.47;;;;;5.20;94679.00;;;;8248628;28;20301;-82
2022/01/05 04:16:56;;;;;;;3.67;2.70;;;;;5.20;94685.00;;;;8243238;28;20313;-78
2022/01/05 04:21:00;;;;;;;2.43;1.53;;;;;5.30;94696.00;;;;8246514;28;20231;-80
2022/01/05 04:25:04;;;;;;;2.23;1.47;;;;;5.30;94693.00;;;;8246712;28;20239;-78
2022/01/05 04:29:07;;;;;;;2.50;1.53;;;;;5.30;94691.00;;;;8254864;28;20588;-81
2022/01/05 04:33:12;;;;;;;1.90;1.50;;;;;5.30;94677.00;;;;8258015;28;20344;-82
2022/01/05 04:37:35;;;;;;;1.80;1.70;;;;;5.40;94681.00;;;;8243605;28;20236;-79
2022/01/05 04:41:38;;;;;;;1.80;1.47;;;;;5.40;94685.00;;;;8251869;28;20262;-79
2022/01/05 04:45:41;;;;;;;1.67;1.50;;;;;5.40;94685.00;;;;8263122;28;20458;-79
2022/01/05 04:49:46;;;;;;;1.43;1.33;;;;;5.40;94685.00;;;;8259776;28;20334;-80
2022/01/05 04:53:51;;;;;;;1.37;1.27;;;;;5.40;94691.00;;;;8248296;28;20247;-80
2022/01/05 04:57:54;;;;;;;1.10;1.00;;;;;5.40;94685.00;;;;8244120;28;20223;-79
2022/01/05 05:01:57;;;;;;;1.30;1.20;;;;;5.40;94695.00;;;;8239910;28;20273;-83
2022/01/05 05:06:02;;;;;;;0.90;0.90;;;;;5.40;94690.00;;;;8244897;28;20237;-82
2022/01/05 05:10:06;;;;;;;1.43;1.20;;;;;5.30;94696.00;;;;8257672;28;20265;-84
2022/01/05 05:14:10;;;;;;;1.40;1.30;;;;;5.40;94691.00;;;;8257815;28;20219;-80
2022/01/05 05:18:14;;;;;;;1.37;1.27;;;;;5.40;94690.00;;;;8247201;28;20302;-85
2022/01/05 05:22:18;;;;;;;1.43;1.20;;;;;5.40;94679.00;;;;8251600;28;20940;-80
2022/01/05 05:26:22;;;;;;;1.07;0.93;;;;;5.40;94685.00;;;;8245246;28;20262;-82
2022/01/05 05:30:25;;;;;;;1.20;0.70;;;;;5.40;94701.00;;;;8240353;28;20262;-80
2022/01/05 05:34:28;;;;;;;0.40;0.40;;;;;5.40;94680.00;;;;8251555;28;20467;-84
2022/01/05 05:38:33;;;;;;;0.80;0.60;;;;;5.40;94669.00;;;;8237898;28;20675;-78
2022/01/05 05:42:37;;;;;;;0.50;0.50;;;;;5.40;94678.00;;;;8255009;28;20584;-82
2022/01/05 05:46:41;;;;;;;0.30;0.30;;;;;5.40;94683.00;;;;8221881;28;20227;-84
2022/01/05 05:50:45;;;;;;;0.37;0.37;;;;;5.30;94682.00;;;;8221362;28;20323;-76
2022/01/05 05:54:50;;;;;;;0.50;0.50;;;;;5.30;94691.00;;;;8223748;28;20250;-75
2022/01/05 05:59:13;;;;;;;0.67;0.67;;;;;5.40;94709.00;;;;8249137;28;20226;-80
2022/01/05 06:03:17;;;;;;;0.50;0.50;;;;;5.40;94703.00;;;;8239166;28;20265;-78
2022/01/05 06:07:20;;;;;;;0.50;0.50;;;;;5.40;94698.00;;;;8241197;28;20298;-77
2022/01/05 06:11:24;;;;;;;0.50;0.50;;;;;5.50;94688.00;;;;8244424;28;20283;-77
2022/01/05 06:15:28;;;;;;;0.37;0.37;;;;;5.50;94700.00;;;;8238320;28;20314;-81
2022/01/05 06:19:31;;;;;;;0.57;0.57;;;;;5.50;94704.00;;;;8244007;28;20262;-79
2022/01/05 06:23:34;;;;;;;1.73;1.00;;;;;5.50;94704.00;;;;8240897;28;20254;-79
2022/01/05 06:27:39;;;;;;;0.60;0.60;;;;;5.50;94702.00;;;;8242906;28;20310;-78
2022/01/05 06:31:42;;;;;;;1.13;0.80;;;;;5.50;94706.00;;;;8252206;28;20318;-78
2022/01/05 06:35:46;;;;;;;0.83;0.80;;;;;5.60;94706.00;;;;8250796;28;20223;-76
2022/01/05 06:39:49;;;;;;;1.93;0.80;;;;;5.60;94705.00;;;;8252766;28;20863;-76
2022/01/05 06:43:54;;;;;;;0.90;0.90;;;;;5.60;94710.00;;;;8235155;28;20571;-77
2022/01/05 06:47:58;;;;;;;0.60;0.60;;;;;5.60;94716.00;;;;8246736;28;20233;-83
2022/01/05 06:52:02;;;;;;;1.50;0.90;;;;;5.60;94726.00;;;;8248416;28;20230;-73
2022/01/05 06:56:06;;;;;;;1.00;1.00;;;;;5.60;94707.00;;;;8242888;28;20261;-72
2022/01/05 07:00:12;;;;;;;0.70;0.70;;;;;5.70;94710.00;;;;8245343;28;20317;-79
2022/01/05 07:04:15;;;;;;;1.03;1.03;;;;;5.70;94708.00;;;;8228104;28;20286;-74
2022/01/05 07:08:19;;;;;;;1.27;1.20;;;;;5.70;94728.00;;;;8235761;28;20262;-74
2022/01/05 07:12:22;;;;;;;1.30;1.10;;;;;5.70;94716.00;;;;8243260;28;20277;-74
2022/01/05 07:16:27;;;;;;;0.90;0.90;;;;;5.70;94735.00;;;;8240866;28;20242;-75
2022/01/05 07:20:30;;;;;;;0.67;0.60;;;;;5.70;94736.00;;;;8242250;28;20671;-77
2022/01/05 07:24:33;;;;;;;1.03;1.03;;;;;5.70;94747.00;;;;8237332;28;20242;-76
2022/01/05 07:28:37;;;;;;;1.10;1.00;;;;;5.70;94743.00;;;;8241744;28;20234;-75
2022/01/05 07:32:42;;;;;;;0.70;0.70;;;;;5.70;94755.00;;;;8238647;28;20331;-76
2022/01/05 07:36:45;;;;;;;1.40;1.30;;;;;5.80;94753.00;;;;8242874;28;20230;-76
2022/01/05 07:40:48;;;;;;;0.67;0.67;;;;;5.80;94768.00;;;;8224601;28;20310;-75
2022/01/05 07:44:53;;;;;;;2.13;0.90;;;;;5.70;94773.00;;;;8241025;28;20257;-74
2022/01/05 07:48:58;;;;;;;0.70;0.70;;;;;5.70;94769.00;;;;8237673;28;20738;-81
2022/01/05 07:53:04;;;;;;;0.83;0.83;;;;;5.80;94778.00;;;;8244221;28;20250;-75
2022/01/05 07:57:07;;;;;;;1.50;1.40;;;;;5.70;94786.00;;;;8237503;28;20269;-75
2022/01/05 08:01:10;;;;;;;0.90;0.90;;;;;5.70;94785.00;;;;8224890;28;20270;-76
2022/01/05 08:05:15;;;;;;;2.00;1.90;;;;;5.70;94819.00;;;;8243207;28;20280;-75
2022/01/05 08:09:18;;;;;;;3.30;2.63;;;;;5.60;94851.00;;;;8239373;28;20261;-75
2022/01/05 08:13:22;;;;;;;3.67;1.50;;;;;5.50;94866.00;;;;8241852;28;20310;-77
2022/01/05 08:17:25;;;;;;;0.83;0.83;;;;;5.30;94863.00;;;;8246603;28;20254;-75
2022/01/05 08:21:30;;;;;;;3.00;2.80;;;;;5.20;94868.00;;;;8240657;28;20231;-76
2022/01/05 08:25:33;;;;;;;13.00;9.07;;;;;5.00;94871.00;;;;8245952;28;20356;-73
2022/01/05 08:29:37;;;;;;;52.03;27.93;;;;;4.80;94871.00;;;;8237967;28;20345;-76
2022/01/05 08:33:40;;;;;;;4.50;3.43;;;;;4.70;94885.00;;;;8246033;28;20524;-77
2022/01/05 08:37:48;;;;;;;3.37;2.90;;;;;4.60;94909.00;;;;8248975;28;20230;-76
2022/01/05 08:41:52;;;;;;;2.10;1.97;;;;;4.60;94912.00;;;;8250459;28;20751;-76
2022/01/05 08:45:55;;;;;;;6.87;2.93;;;;;4.50;94917.00;;;;8232472;28;20246;-76
2022/01/05 08:49:58;;;;;;;1.30;1.30;;;;;4.40;94945.00;;;;8244420;28;20233;-76
2022/01/05 08:54:04;;;;;;;1.20;1.20;;;;;4.30;94948.00;;;;8248309;28;20711;-75
2022/01/05 08:58:08;;;;;;;1.47;0.90;;;;;4.30;94951.00;;;;8245989;28;20599;-77
2022/01/05 09:02:13;;;;;;;2.77;1.83;;;;;4.20;94963.00;;;;8241928;28;20225;-76
2022/01/05 09:06:17;;;;;;;3.00;2.80;;;;;4.20;94979.00;;;;8246300;28;20240;-74
2022/01/05 09:10:22;;;;;;;2.07;1.97;;;;;4.20;95009.00;;;;8247062;28;20874;-76
2022/01/05 09:14:25;;;;;;;3.10;1.83;;;;;4.10;95004.00;;;;8240013;28;20236;-77
2022/01/05 09:18:31;;;;;;;4.30;3.33;;;;;4.10;95021.00;;;;8200153;28;20270;-81
2022/01/05 09:22:38;;;;;;;5.57;1.50;;;;;4.10;95046.00;;;;8232973;28;20326;-75
2022/01/05 09:26:43;;;;;;;2.67;1.03;;;;;4.10;95060.00;;;;8237542;28;20234;-75
2022/01/05 09:30:46;;;;;;;2.73;1.37;;;;;4.10;95065.00;;;;8249542;28;20234;-77
2022/01/05 09:34:50;;;;;;;8.00;1.07;;;;;4.10;95087.00;;;;8242778;28;20309;-73
2022/01/05 09:43:23;;;;;;;2.93;1.30;;;;;4.10;95095.00;;;;8190561;28;20226;-74
2022/01/05 09:47:47;;;;;;;6.80;1.53;;;;;4.40;95098.00;;;;8233040;28;20233;-72
2022/01/05 09:51:55;;;;;;;6.07;1.20;;;;;4.50;95113.00;;;;8238029;28;20264;-75
2022/01/05 09:55:59;;;;;;;3.40;1.40;;;;;4.60;95118.00;;;;8245749;28;20806;-72
2022/01/05 10:00:05;;;;;;;1.03;1.00;;;;;4.60;95121.00;;;;8248756;28;20662;-73
2022/01/05 10:04:08;;;;;;;8.17;1.63;;;;;4.60;95132.00;;;;8243503;28;20238;-74
2022/01/05 10:08:13;;;;;;;7.90;2.00;;;;;4.70;95134.00;;;;8248453;28;20310;-73
2022/01/05 10:12:16;;;;;;;8.13;1.80;;;;;5.00;95144.00;;;;8242184;28;20257;-74
2022/01/05 10:16:21;;;;;;;6.73;2.37;;;;;5.10;95139.00;;;;8243357;28;20233;-74
2022/01/05 10:21:24;;;;;;;33.53;10.43;;;;;5.20;95154.00;;;;8413323;27;20348;-73
2022/01/05 10:25:28;;;;;;;8.37;2.93;;;;;5.50;95158.00;;;;8416238;27;20243;-74
2022/01/05 10:29:31;;;;;;;11.13;3.07;;;;;5.50;95160.00;;;;8419837;28;20309;-81
2022/01/05 10:33:35;;;;;;;6.07;2.83;;;;;5.50;95168.00;;;;8412881;28;20222;-74
2022/01/05 10:37:42;;;;;;;5.60;3.00;;;;;5.20;95170.00;;;;8413608;28;20315;-76
2022/01/05 10:41:46;;;;;;;9.07;3.00;;;;;4.90;95170.00;;;;8423674;28;20676;-69
2022/01/05 10:45:51;;;;;;;9.93;3.47;;;;;4.80;95174.00;;;;8407939;28;20230;-68
2022/01/05 10:49:58;;;;;;;6.03;2.50;;;;;4.70;95190.00;;;;8415918;28;20219;-75
2022/01/05 10:54:15;;;;;;;7.77;2.27;;;;;4.30;95166.00;;;;8417936;28;20266;-72
2022/01/05 10:58:20;;;;;;;7.10;2.80;;;;;4.00;95172.00;;;;8407805;27;20229;-73
2022/01/05 11:02:24;;;;;;;12.63;3.43;;;;;3.90;95187.00;;;;8416070;28;20226;-74
2022/01/05 11:06:28;;;;;;;6.60;3.40;;;;;4.00;95193.00;;;;8408364;27;20747;-74
2022/01/05 11:10:32;;;;;;;8.20;2.23;;;;;3.90;95196.00;;;;8408289;27;20288;-76
2022/01/05 11:14:39;;;;;;;10.20;3.23;;;;;3.90;95194.00;;;;8407953;27;20239;-79
2022/01/05 11:18:42;;;;;;;10.17;2.73;;;;;4.00;95191.00;;;;8402344;27;20686;-75
2022/01/05 11:22:45;;;;;;;5.47;2.10;;;;;3.90;95201.00;;;;8402812;27;20712;-77
2022/01/05 11:26:50;;;;;;;7.37;2.00;;;;;3.90;95206.00;;;;8407958;27;20253;-77
2022/01/05 11:30:55;;;;;;;10.27;2.40;;;;;4.00;95204.00;;;;8389360;27;20748;-74
2022/01/05 11:34:59;;;;;;;12.53;2.30;;;;;4.00;95219.00;;;;8376999;28;20998;-80
2022/01/05 11:39:02;;;;;;;6.93;2.17;;;;;3.90;95207.00;;;;8335979;28;20255;-76
2022/01/05 11:43:10;;;;;;;5.27;1.90;;;;;3.80;95208.00;;;;8350711;28;20589;-73
2022/01/05 11:47:21;;;;;;;5.77;2.70;;;;;3.80;95219.00;;;;8342316;28;20658;-77
2022/01/05 11:51:30;;;;;;;9.53;2.40;;;;;3.90;95222.00;;;;8344295;28;20233;-71
2022/01/05 11:56:10;;;;;;;5.53;2.10;;;;;3.90;95220.00;;;;8348898;28;20307;-69
2022/01/05 12:00:19;;;;;;;4.03;1.93;;;;;3.70;95240.00;;;;8351039;28;20234;-71
2022/01/05 12:04:22;;;;;;;5.73;2.10;;;;;3.50;95231.00;;;;8339386;28;20658;-70
2022/01/05 12:08:43;;;;;;;5.13;2.17;;;;;3.60;95243.00;;;;8343761;28;20231;-74
2022/01/05 12:13:01;;;;;;;4.93;2.43;;;;;3.60;95246.00;;;;8386085;28;20227;-76
2022/01/05 12:17:14;;;;;;;7.17;2.47;;;;;3.70;95243.00;;;;8364418;28;20708;-72
2022/01/05 12:21:42;;;;;;;8.03;2.60;;;;;3.80;95253.00;;;;8374657;28;20225;-73
2022/01/05 12:26:16;;;;;;;5.00;2.20;;;;;4.00;95269.00;;;;8366715;28;20235;-71
2022/01/05 12:30:47;;;;;;;3.47;2.33;;;;;4.40;95277.00;;;;8375212;28;20312;-73
2022/01/05 12:34:54;;;;;;;5.43;2.13;;;;;4.60;95282.00;;;;8333021;28;20315;-73
2022/01/05 12:38:57;;;;;;;8.47;2.40;;;;;4.40;95277.00;;;;8344194;28;20243;-74
2022/01/05 12:43:40;;;;;;;11.87;2.60;;;;;4.10;95274.00;;;;8342494;28;20263;-75
2022/01/05 12:48:04;;;;;;;4.47;2.37;;;;;4.00;95272.00;;;;8412988;28;20219;-74
2022/01/05 12:52:12;;;;;;;12.77;2.67;;;;;4.00;95268.00;;;;8432323;28;20262;-74
2022/01/05 12:56:19;;;;;;;6.63;2.60;;;;;4.30;95276.00;;;;8441144;28;20230;-74
2022/01/05 13:00:22;;;;;;;7.83;2.93;;;;;4.60;95274.00;;;;8450394;27;20317;-72
2022/01/05 13:04:25;;;;;;;4.93;1.90;;;;;4.80;95294.00;;;;8451849;27;20261;-78
2022/01/05 13:08:32;;;;;;;5.27;1.93;;;;;4.80;95287.00;;;;8449606;27;20648;-73
2022/01/05 13:12:35;;;;;;;5.83;2.37;;;;;4.70;95303.00;;;;8455946;27;20883;-75
2022/01/05 13:16:38;;;;;;;4.57;2.00;;;;;4.60;95307.00;;;;8446668;27;20309;-74
2022/01/05 13:20:41;;;;;;;2.13;1.63;;;;;4.50;95315.00;;;;8447518;27;20258;-72
2022/01/05 13:24:52;;;;;;;9.73;2.00;;;;;4.20;95320.00;;;;8440056;27;20297;-72
2022/01/05 13:28:55;;;;;;;3.17;1.80;;;;;4.10;95316.00;;;;8441491;27;20414;-74
2022/01/05 13:33:00;;;;;;;5.27;1.90;;;;;4.20;95329.00;;;;8448032;27;20702;-73
2022/01/05 13:37:05;;;;;;;5.80;2.30;;;;;4.10;95327.00;;;;8440846;27;20234;-74
2022/01/05 13:41:11;;;;;;;7.33;2.50;;;;;4.00;95341.00;;;;8415715;28;20350;-77
2022/01/05 13:45:20;;;;;;;10.27;2.17;;;;;3.90;95341.00;;;;8430970;28;20699;-76
2022/01/05 13:49:24;;;;;;;9.93;2.30;;;;;3.90;95333.00;;;;8457948;27;20263;-74
2022/01/05 13:53:29;;;;;;;8.03;2.17;;;;;3.80;95325.00;;;;8471560;27;20331;-73
2022/01/05 13:57:35;;;;;;;7.00;2.20;;;;;3.70;95326.00;;;;8450308;28;20246;-72
2022/01/05 14:01:41;;;;;;;5.63;2.20;;;;;3.60;95344.00;;;;8448900;28;20272;-76
2022/01/05 14:05:47;;;;;;;8.70;2.67;;;;;3.60;95343.00;;;;8422359;28;20714;-71
2022/01/05 14:10:10;;;;;;;10.87;2.23;;;;;3.60;95359.00;;;;8438773;28;20297;-79
2022/01/05 14:14:14;;;;;;;5.87;1.70;;;;;3.60;95361.00;;;;8428099;28;20685;-79
2022/01/05 14:18:18;;;;;;;9.07;2.23;;;;;3.60;95367.00;;;;8437077;28;20246;-71
2022/01/05 14:22:30;;;;;;;7.20;2.00;;;;;3.50;95379.00;;;;8434574;28;20540;-72
2022/01/05 14:26:34;;;;;;;9.80;2.03;;;;;3.40;95382.00;;;;8444261;28;20591;-75
2022/01/05 14:30:39;;;;;;;14.17;2.10;;;;;3.40;95389.00;;;;8430847;28;20253;-75
2022/01/05 14:34:47;;;;;;;8.87;2.40;;;;;3.40;95397.00;;;;8430253;28;20225;-75
2022/01/05 14:39:00;;;;;;;6.43;2.20;;;;;3.40;95408.00;;;;8434383;28;21103;-72
2022/01/05 14:43:04;;;;;;;7.47;2.17;;;;;3.40;95413.00;;;;8424651;28;20676;-73
2022/01/05 14:47:19;;;;;;;12.63;2.23;;;;;3.30;95404.00;;;;8425374;28;20234;-72
2022/01/05 14:51:22;;;;;;;5.00;2.07;;;;;3.30;95415.00;;;;8439804;28;20256;-77
2022/01/05 14:55:26;;;;;;;11.00;2.83;;;;;3.30;95419.00;;;;8429096;28;20312;-74
2022/01/05 14:59:29;;;;;;;7.13;2.00;;;;;3.30;95430.00;;;;8416884;28;20265;-73
2022/01/05 15:03:34;;;;;;;8.17;2.33;;;;;3.30;95420.00;;;;8422948;28;20225;-70
2022/01/05 15:07:38;;;;;;;7.63;1.77;;;;;3.20;95430.00;;;;8433234;28;20226;-73
2022/01/05 15:11:41;;;;;;;4.53;2.10;;;;;3.20;95435.00;;;;8431121;28;20302;-75
2022/01/05 15:15:45;;;;;;;7.23;2.20;;;;;3.20;95434.00;;;;8446833;27;20305;-71
2022/01/05 15:19:50;;;;;;;5.97;2.17;;;;;3.20;95434.00;;;;8444811;28;20313;-72
2022/01/05 15:23:53;;;;;;;4.73;2.00;;;;;3.20;95438.00;;;;8432315;27;20905;-72
2022/01/05 15:27:57;;;;;;;12.63;2.43;;;;;3.10;95440.00;;;;8427609;28;20222;-73
2022/01/05 15:32:00;;;;;;;7.27;2.43;;;;;3.20;95444.00;;;;8429288;28;20242;-75
2022/01/05 15:36:06;;;;;;;11.43;2.43;;;;;3.10;95453.00;;;;8435952;28;20225;-71
2022/01/05 15:40:11;;;;;;;7.23;2.30;;;;;3.10;95449.00;;;;8440316;27;20310;-75
2022/01/05 15:44:14;;;;;;;10.70;2.33;;;;;3.10;95462.00;;;;8434191;28;20724;-74
2022/01/05 15:48:17;;;;;;;3.87;1.80;;;;;3.10;95459.00;;;;8443386;27;20258;-73
2022/01/05 15:52:22;;;;;;;4.80;1.70;;;;;3.20;95464.00;;;;8437988;27;20781;-74
2022/01/05 15:56:37;;;;;;;7.33;2.00;;;;;3.20;95469.00;;;;8447698;28;20226;-71
2022/01/05 16:05:01;;;;;;;4.67;2.30;;;;;3.20;95460.00;;;;8435171;28;20230;-74
2022/01/05 16:09:08;;;;;;;6.10;1.70;;;;;3.20;95453.00;;;;8585858;22;20321;-71
2022/01/05 16:13:15;;;;;;;7.13;2.50;;;;;3.20;95454.00;;;;8300084;28;20798;-70
2022/01/05 16:17:18;;;;;;;5.27;1.83;;;;;3.20;95466.00;;;;8314986;28;20682;-72
2022/01/05 16:21:22;;;;;;;9.20;2.10;;;;;3.20;95467.00;;;;8314405;28;20232;-72
2022/01/05 16:25:26;;;;;;;14.13;2.13;;;;;3.20;95476.00;;;;8309512;28;20962;-74
2022/01/05 16:29:30;;;;;;;4.43;2.23;;;;;3.20;95489.00;;;;8309635;28;20308;-74
2022/01/05 16:33:36;;;;;;;4.37;2.10;;;;;3.20;95481.00;;;;8304697;28;20744;-80
2022/01/05 16:37:39;;;;;;;8.10;2.70;;;;;3.20;95483.00;;;;8305294;28;20251;-79
2022/01/05 16:41:46;;;;;;;7.97;2.77;;;;;3.20;95490.00;;;;8313967;28;20262;-79
2022/01/05 16:45:50;;;;;;;7.40;2.50;;;;;3.20;95503.00;;;;8308144;28;20466;-78
2022/01/05 16:49:55;;;;;;;5.87;2.90;;;;;3.20;95509.00;;;;8306631;28;20231;-78
2022/01/05 16:53:58;;;;;;;10.27;3.10;;;;;3.20;95511.00;;;;8307785;28;20256;-79
2022/01/05 17:02:24;;;;;;;10.33;3.57;;;;;3.20;95513.00;;;;8298213;28;20257;-79
2022/01/05 17:06:31;;;;;;;8.33;3.50;;;;;3.20;95519.00;;;;8302103;28;20236;-79
2022/01/05 17:10:36;;;;;;;10.37;3.23;;;;;3.20;95520.00;;;;8320375;28;20231;-78
2022/01/05 17:14:41;;;;;;;19.30;9.93;;;;;3.20;95515.00;;;;8333962;28;20235;-80
2022/01/05 17:18:44;;;;;;;50.73;26.57;;;;;3.20;95527.00;;;;8332367;28;20230;-79
2022/01/05 17:22:48;;;;;;;37.73;21.83;;;;;3.20;95525.00;;;;8331073;28;20247;-74
2022/01/05 17:26:51;;;;;;;13.70;7.43;;;;;3.20;95525.00;;;;8335955;28;20315;-76
2022/01/05 17:30:56;;;;;;;13.00;5.80;;;;;3.20;95527.00;;;;8333384;28;20589;-73
2022/01/05 17:34:59;;;;;;;12.93;6.23;;;;;3.20;95537.00;;;;8334410;28;20232;-78
2022/01/05 17:39:04;;;;;;;6.13;5.33;;;;;3.20;95530.00;;;;8337842;28;20259;-78
2022/01/05 17:43:08;;;;;;;7.20;3.60;;;;;3.20;95545.00;;;;8331204;28;20240;-76
2022/01/05 17:47:21;;;;;;;8.03;3.17;;;;;3.20;95534.00;;;;8327342;28;20243;-76
2022/01/05 17:51:25;;;;;;;8.50;3.03;;;;;3.20;95535.00;;;;8332900;28;20230;-77
2022/01/05 17:55:29;;;;;;;5.67;2.40;;;;;3.20;95540.00;;;;8326281;28;20696;-78
2022/01/05 17:59:33;;;;;;;13.73;2.40;;;;;3.20;95531.00;;;;8338034;28;20240;-75
2022/01/05 18:03:39;;;;;;;8.07;3.83;;;;;3.10;95541.00;;;;8332669;28;20279;-78
2022/01/05 18:07:42;;;;;;;5.13;3.00;;;;;3.10;95531.00;;;;8343368;28;20742;-79
2022/01/05 18:11:46;;;;;;;8.80;2.43;;;;;3.10;95542.00;;;;8339911;28;20235;-78
2022/01/05 18:15:49;;;;;;;9.07;1.97;;;;;3.10;95539.00;;;;8333852;28;20262;-80
2022/01/05 18:19:54;;;;;;;14.63;2.40;;;;;3.10;95539.00;;;;8325723;28;20240;-78
2022/01/05 18:23:57;;;;;;;6.30;2.23;;;;;3.10;95542.00;;;;8325956;28;20239;-80
2022/01/05 18:28:00;;;;;;;7.50;2.03;;;;;3.10;95537.00;;;;8333454;28;20258;-77
2022/01/05 18:32:04;;;;;;;8.17;2.53;;;;;3.10;95547.00;;;;8329909;28;20232;-79
2022/01/05 18:36:10;;;;;;;4.90;2.10;;;;;3.10;95550.00;;;;8337348;28;20219;-79
2022/01/05 18:40:15;;;;;;;5.17;1.90;;;;;3.20;95567.00;;;;8325563;28;20935;-78
2022/01/05 18:44:19;;;;;;;6.67;2.40;;;;;3.20;95558.00;;;;8337691;28;20247;-78
2022/01/05 18:48:22;;;;;;;10.53;2.03;;;;;3.20;95566.00;;;;8332135;28;20261;-82
2022/01/05 18:52:27;;;;;;;3.83;2.00;;;;;3.20;95571.00;;;;8338736;28;20245;-83
2022/01/05 18:56:31;;;;;;;8.27;2.07;;;;;3.20;95571.00;;;;8334750;28;20262;-81
2022/01/05 19:00:34;;;;;;;7.70;2.27;;;;;3.30;95583.00;;;;8329131;28;20263;-75
2022/01/05 19:04:38;;;;;;;3.67;1.70;;;;;3.30;95586.00;;;;8327712;28;20297;-75
2022/01/05 19:08:44;;;;;;;7.33;2.20;;;;;3.30;95584.00;;;;8338758;28;20220;-75
2022/01/05 19:12:47;;;;;;;10.43;7.53;;;;;3.30;95588.00;;;;8334800;28;20239;-74
2022/01/05 19:16:52;;;;;;;7.13;2.33;;;;;3.30;95578.00;;;;8332322;28;20383;-75
2022/01/05 19:20:57;;;;;;;5.93;2.17;;;;;3.40;95588.00;;;;8337280;28;20243;-75
2022/01/05 19:25:03;;;;;;;8.03;2.23;;;;;3.40;95590.00;;;;8341426;28;20224;-75
2022/01/05 19:29:26;;;;;;;11.43;4.60;;;;;3.30;95587.00;;;;8337551;28;20995;-76
2022/01/05 19:33:29;;;;;;;5.80;2.17;;;;;3.30;95580.00;;;;8340466;28;20732;-74
2022/01/05 19:37:33;;;;;;;3.97;2.00;;;;;3.30;95584.00;;;;8335165;28;20689;-75
2022/01/05 19:41:37;;;;;;;4.43;2.60;;;;;3.30;95582.00;;;;8338402;28;20232;-74
2022/01/05 19:45:41;;;;;;;8.20;2.50;;;;;3.40;95591.00;;;;8334202;28;20227;-75
2022/01/05 19:49:49;;;;;;;7.07;2.53;;;;;3.40;95586.00;;;;8341137;28;20229;-76
2022/01/05 19:53:55;;;;;;;4.03;2.60;;;;;3.30;95587.00;;;;8341893;28;20932;-74
2022/01/05 19:57:59;;;;;;;3.17;1.63;;;;;3.30;95585.00;;;;8328730;28;20236;-75
2022/01/05 20:02:05;;;;;;;7.83;2.03;;;;;3.30;95582.00;;;;8337297;28;20232;-74
2022/01/05 20:06:09;;;;;;;3.50;1.50;;;;;3.30;95589.00;;;;8334336;28;20312;-75
2022/01/05 20:10:14;;;;;;;6.53;1.60;;;;;3.30;95601.00;;;;8335455;28;20254;-75
2022/01/05 20:14:20;;;;;;;3.93;1.50;;;;;3.40;95611.00;;;;8332022;28;20265;-73
2022/01/05 20:18:31;;;;;;;4.23;1.80;;;;;3.40;95619.00;;;;8334306;28;20253;-73
2022/01/05 20:22:35;;;;;;;5.93;1.90;;;;;3.40;95618.00;;;;8336715;28;20270;-74
2022/01/05 20:26:40;;;;;;;3.60;2.00;;;;;3.40;95617.00;;;;8332448;28;21119;-74
2022/01/05 20:30:45;;;;;;;5.20;1.63;;;;;3.40;95631.00;;;;8335846;28;20232;-74
2022/01/05 20:34:48;;;;;;;5.33;1.70;;;;;3.40;95635.00;;;;8335674;28;20266;-73
2022/01/05 20:38:52;;;;;;;6.67;2.07;;;;;3.40;95624.00;;;;8326672;28;20342;-73
2022/01/05 20:42:55;;;;;;;17.97;8.30;;;;;3.40;95637.00;;;;8332779;28;20338;-73
2022/01/05 20:47:02;;;;;;;18.73;11.80;;;;;3.40;95642.00;;;;8335725;28;20259;-73
2022/01/05 20:51:05;;;;;;;8.60;2.27;;;;;3.50;95647.00;;;;8334815;28;20233;-73
2022/01/05 20:55:10;;;;;;;6.33;1.87;;;;;3.50;95645.00;;;;8338305;28;20251;-74